LFBT 301030Z AUTO 35004KT 280V090 CAVOK 25/13 Q1015

ElémentsDécodage
LFBT Station météo située sur l'aérodrome de TARBES Lourdes-Pyrénées
301030Z émis le 30 du mois à 10h30 UTC
AUTO Bulletin édité par un automate
35004KT vent du 350°, 04 noeuds
280V090 vent de direction variable entre 280° et 090°
CAVOK Ceiling And Visibility OK
- Visibilité de 10 Km ou plus
- Pas de nuage au-dessous de 1500m ou au-dessous de l'altitude minimale du secteur la plus élevée (si>1500m) et absence de CB
- pas de temps présent significatif
25/13 température 25°C, point de rosée 13°C
 soit une humidité relative de 47%
Q1015 la pression au niveau de la mer (QNH) est de 1015 hPa